Time;durP1;ratioP1;P1;durP2;ratioP2;P2;SDS_P1;SDS_P2;PMS_P1;PMS_P2;Temp;Humidity;BMP_temperature;BMP_pressure;BME280_temperature;BME280_humidity;BME280_pressure;Samples;Min_cycle;Max_cycle;Signal;HPM_P1;HPM_P2
2021/12/29 00:01:20;;;;;;;100.50;12.95;;;6.40;99.90;;;;;;4994611;28;20046;-59
2021/12/29 00:03:46;;;;;;;114.30;12.07;;;6.40;99.90;;;;;;4994287;28;20406;-58
2021/12/29 00:06:11;;;;;;;96.00;11.18;;;6.40;99.90;;;;;;4985156;28;20042;-57
2021/12/29 00:08:37;;;;;;;88.15;11.40;;;6.40;99.90;;;;;;4994082;28;20050;-58
2021/12/29 00:11:04;;;;;;;90.20;10.98;;;6.40;99.90;;;;;;4993856;28;20047;-58
2021/12/29 00:13:30;;;;;;;77.38;11.63;;;6.40;99.90;;;;;;4994182;28;20039;-58
2021/12/29 00:15:57;;;;;;;72.18;11.18;;;6.40;99.90;;;;;;4993955;28;20041;-58
2021/12/29 00:18:31;;;;;;;80.60;10.55;;;6.40;99.90;;;;;;4994520;28;20034;-58
2021/12/29 00:20:58;;;;;;;66.35;11.38;;;6.50;99.90;;;;;;4994320;28;20042;-58
2021/12/29 00:23:24;;;;;;;77.55;11.52;;;6.40;99.90;;;;;;4994240;28;20046;-59
2021/12/29 00:25:50;;;;;;;89.40;12.15;;;6.50;99.90;;;;;;4994078;28;20394;-58
2021/12/29 00:28:16;;;;;;;93.82;11.15;;;6.50;99.90;;;;;;4993849;28;20027;-58
2021/12/29 00:30:43;;;;;;;114.65;12.82;;;6.50;99.90;;;;;;4993612;28;20437;-58
2021/12/29 00:33:09;;;;;;;114.72;12.57;;;6.40;99.90;;;;;;4993701;28;20038;-58
2021/12/29 00:35:38;;;;;;;150.57;13.30;;;6.40;99.90;;;;;;4993735;28;20034;-59
2021/12/29 00:38:07;;;;;;;123.07;11.93;;;6.40;99.90;;;;;;4994070;28;20042;-58
2021/12/29 00:40:34;;;;;;;114.18;12.35;;;6.40;99.90;;;;;;4981433;28;20049;-58
2021/12/29 00:43:01;;;;;;;111.05;11.50;;;6.40;99.90;;;;;;4992721;28;20054;-58
2021/12/29 00:45:27;;;;;;;111.00;11.27;;;6.50;99.90;;;;;;4993902;28;20070;-58
2021/12/29 00:47:53;;;;;;;100.93;11.68;;;6.50;99.90;;;;;;4993457;28;20045;-58
2021/12/29 00:50:20;;;;;;;99.65;11.82;;;6.50;99.90;;;;;;4993750;28;20105;-58
2021/12/29 00:52:46;;;;;;;108.63;12.13;;;6.50;99.90;;;;;;4993390;28;20057;-58
2021/12/29 00:55:14;;;;;;;116.97;12.25;;;6.50;99.90;;;;;;4993444;28;20113;-58
2021/12/29 00:57:40;;;;;;;89.45;12.15;;;6.40;99.90;;;;;;4993597;28;20038;-58
2021/12/29 01:00:14;;;;;;;103.43;12.75;;;6.50;99.90;;;;;;4992943;28;20042;-58
2021/12/29 01:02:40;;;;;;;79.57;11.55;;;6.50;99.90;;;;;;4993284;28;20046;-58
2021/12/29 01:05:07;;;;;;;79.05;11.73;;;6.50;99.90;;;;;;4993212;28;20398;-58
2021/12/29 01:07:33;;;;;;;82.47;12.68;;;6.50;99.90;;;;;;4993578;28;20049;-58
2021/12/29 01:10:00;;;;;;;94.13;13.15;;;6.60;99.90;;;;;;4993094;28;20046;-57
2021/12/29 01:12:27;;;;;;;121.85;13.85;;;6.60;99.90;;;;;;4993138;28;20070;-58
2021/12/29 01:14:55;;;;;;;114.90;13.52;;;6.60;99.90;;;;;;4985857;28;20042;-58
2021/12/29 01:17:23;;;;;;;110.05;14.10;;;6.60;99.90;;;;;;4976112;28;20043;-58
2021/12/29 01:19:53;;;;;;;99.57;14.70;;;6.70;99.90;;;;;;4973459;28;20499;-58
2021/12/29 01:22:22;;;;;;;95.43;15.45;;;6.70;99.90;;;;;;4975799;28;20066;-58
2021/12/29 01:24:48;;;;;;;91.90;15.13;;;6.80;99.90;;;;;;4973787;28;20129;-58
2021/12/29 01:27:15;;;;;;;72.30;15.93;;;6.90;99.90;;;;;;4973460;28;20114;-58
2021/12/29 01:29:42;;;;;;;97.50;17.45;;;7.10;99.90;;;;;;4955820;28;20098;-58
2021/12/29 01:32:08;;;;;;;79.90;17.48;;;7.00;99.90;;;;;;4973386;28;20483;-58
2021/12/29 01:34:34;;;;;;;88.38;19.67;;;7.10;99.90;;;;;;4973490;28;20455;-58
2021/12/29 01:37:00;;;;;;;83.93;20.08;;;7.10;99.90;;;;;;4973305;28;20042;-59
2021/12/29 01:39:26;;;;;;;83.22;19.95;;;7.30;99.90;;;;;;4991410;28;20593;-59
2021/12/29 01:41:55;;;;;;;75.25;18.83;;;7.30;99.90;;;;;;4992717;28;20042;-58
2021/12/29 01:44:24;;;;;;;76.35;20.83;;;7.30;99.90;;;;;;4991639;28;20112;-58
2021/12/29 01:46:51;;;;;;;70.13;20.90;;;7.30;99.90;;;;;;4992670;28;20045;-58
2021/12/29 01:49:17;;;;;;;88.78;21.40;;;7.30;99.90;;;;;;4992415;28;20045;-58
2021/12/29 01:52:02;;;;;;;79.40;20.25;;;7.30;99.90;;;;;;4992485;28;20066;-58
2021/12/29 01:54:34;;;;;;;79.50;21.25;;;7.30;99.90;;;;;;4992625;28;20041;-59
2021/12/29 01:57:00;;;;;;;70.72;21.58;;;7.30;99.90;;;;;;4992434;28;20048;-58
2021/12/29 01:59:28;;;;;;;74.38;22.05;;;7.30;99.90;;;;;;4991416;28;20092;-58
2021/12/29 02:01:54;;;;;;;90.47;23.92;;;7.30;99.90;;;;;;4992389;28;20085;-58
2021/12/29 02:04:20;;;;;;;94.60;25.08;;;7.20;99.90;;;;;;4991922;28;20090;-58
2021/12/29 02:06:47;;;;;;;80.45;24.80;;;7.20;99.90;;;;;;4992014;28;20839;-58
2021/12/29 02:09:13;;;;;;;84.82;24.15;;;7.40;99.90;;;;;;4992193;28;20122;-58
2021/12/29 02:11:41;;;;;;;75.53;22.85;;;7.20;99.90;;;;;;4992224;28;20457;-58
2021/12/29 02:14:09;;;;;;;68.45;21.23;;;7.20;99.90;;;;;;4992054;28;20138;-58
2021/12/29 02:16:35;;;;;;;73.88;23.05;;;7.20;99.90;;;;;;4991958;28;20110;-58
2021/12/29 02:19:04;;;;;;;61.63;19.75;;;7.20;99.90;;;;;;4992157;28;20050;-58
2021/12/29 02:21:32;;;;;;;70.60;20.08;;;7.20;99.90;;;;;;4991432;28;20046;-58
2021/12/29 02:26:29;;;;;;;71.00;19.98;;;7.20;99.90;;;;;;4991653;28;20046;-58
2021/12/29 02:28:56;;;;;;;72.55;20.35;;;7.20;99.90;;;;;;4991486;28;20062;-58
2021/12/29 02:31:25;;;;;;;67.95;20.42;;;7.20;99.90;;;;;;4991953;28;20505;-58
2021/12/29 02:33:54;;;;;;;71.30;21.00;;;7.40;99.90;;;;;;4991666;28;20050;-58
2021/12/29 02:36:21;;;;;;;72.65;20.77;;;7.20;99.90;;;;;;4973870;28;20113;-59
2021/12/29 02:38:51;;;;;;;66.55;20.85;;;7.20;99.90;;;;;;4972272;28;20097;-58
2021/12/29 02:41:17;;;;;;;71.60;21.20;;;7.20;99.90;;;;;;4972566;28;20042;-58
2021/12/29 02:43:45;;;;;;;69.68;21.23;;;7.20;99.90;;;;;;4972436;28;20047;-58
2021/12/29 02:46:14;;;;;;;77.32;22.15;;;7.20;99.90;;;;;;4990282;28;20042;-58
2021/12/29 02:48:54;;;;;;;72.70;21.50;;;7.40;99.90;;;;;;4991559;28;20073;-58
2021/12/29 02:51:21;;;;;;;87.85;23.90;;;7.20;99.90;;;;;;4991499;28;20375;-58
2021/12/29 02:53:46;;;;;;;83.22;22.92;;;7.20;99.90;;;;;;4972099;28;20121;-58
2021/12/29 02:56:12;;;;;;;76.80;22.38;;;7.10;99.90;;;;;;4971990;28;20455;-58
2021/12/29 02:58:38;;;;;;;86.13;23.80;;;7.10;99.90;;;;;;4971785;28;20043;-59
2021/12/29 03:01:11;;;;;;;78.72;22.65;;;7.20;99.90;;;;;;4972240;28;20034;-58
2021/12/29 03:03:37;;;;;;;95.80;23.33;;;7.10;99.90;;;;;;4990005;28;20046;-58
2021/12/29 03:06:05;;;;;;;72.72;22.90;;;7.10;99.90;;;;;;4991291;28;20046;-58
2021/12/29 03:08:31;;;;;;;77.70;22.30;;;7.10;99.90;;;;;;4991198;28;20042;-58
2021/12/29 03:10:57;;;;;;;69.80;22.05;;;7.10;99.90;;;;;;4991216;28;20501;-58
2021/12/29 03:13:25;;;;;;;65.88;21.02;;;7.10;99.90;;;;;;4991334;28;20406;-58
2021/12/29 03:15:51;;;;;;;68.70;21.65;;;7.10;99.90;;;;;;4991246;28;20038;-58
2021/12/29 03:18:17;;;;;;;68.30;21.23;;;7.10;99.90;;;;;;4991176;28;20034;-58
2021/12/29 03:20:43;;;;;;;64.32;20.13;;;7.20;99.90;;;;;;4991152;28;20030;-57
2021/12/29 03:23:08;;;;;;;61.63;20.80;;;7.20;99.90;;;;;;4991354;28;20057;-58
2021/12/29 03:25:34;;;;;;;56.22;18.80;;;7.40;99.90;;;;;;4990985;28;20121;-58
2021/12/29 03:28:00;;;;;;;63.45;20.10;;;7.20;99.90;;;;;;4991136;28;20050;-59
2021/12/29 03:30:28;;;;;;;57.08;19.65;;;7.20;99.90;;;;;;4990468;28;20045;-59
2021/12/29 03:33:03;;;;;;;67.47;20.13;;;7.20;99.90;;;;;;4990987;28;20045;-59
2021/12/29 03:35:45;;;;;;;56.88;19.75;;;7.20;99.90;;;;;;4990903;28;20042;-58
2021/12/29 03:38:15;;;;;;;58.35;20.15;;;7.20;99.90;;;;;;4990066;28;20046;-58
2021/12/29 03:40:42;;;;;;;60.55;21.45;;;7.20;99.90;;;;;;4991116;28;20042;-58
2021/12/29 03:43:09;;;;;;;67.32;22.30;;;7.20;99.90;;;;;;4991267;28;20042;-58
2021/12/29 03:45:37;;;;;;;70.35;21.95;;;7.20;99.90;;;;;;4972932;28;20034;-58
2021/12/29 03:48:04;;;;;;;67.80;22.27;;;7.20;99.90;;;;;;4971417;28;20043;-58
2021/12/29 03:50:30;;;;;;;63.45;21.63;;;7.30;99.90;;;;;;4971477;28;20035;-58
2021/12/29 03:52:56;;;;;;;72.53;23.75;;;7.30;99.90;;;;;;4971698;28;20035;-58
2021/12/29 03:55:22;;;;;;;75.15;24.00;;;7.30;99.90;;;;;;4971652;28;20047;-58
2021/12/29 03:57:47;;;;;;;78.22;24.42;;;7.30;99.90;;;;;;4954106;28;20074;-58
2021/12/29 04:00:16;;;;;;;78.15;23.85;;;7.30;99.90;;;;;;4971108;28;20047;-58
2021/12/29 04:02:43;;;;;;;72.22;23.50;;;7.30;99.90;;;;;;4971452;28;20117;-58
2021/12/29 04:05:11;;;;;;;79.45;26.05;;;7.30;99.90;;;;;;4971238;28;20046;-58
2021/12/29 04:07:37;;;;;;;79.55;24.25;;;7.40;99.90;;;;;;4973572;28;20397;-59
2021/12/29 04:10:04;;;;;;;79.20;24.13;;;7.30;99.90;;;;;;4975145;28;20553;-58
2021/12/29 04:12:30;;;;;;;98.60;25.70;;;7.30;99.90;;;;;;4975013;28;20066;-58
2021/12/29 04:14:56;;;;;;;84.10;25.00;;;7.40;99.90;;;;;;4975113;28;20037;-58
2021/12/29 04:17:26;;;;;;;84.57;24.55;;;7.40;99.90;;;;;;4974884;28;20069;-58
2021/12/29 04:22:37;;;;;;;100.07;24.00;;;7.40;99.90;;;;;;4993464;28;20073;-58
2021/12/29 04:25:03;;;;;;;73.20;20.75;;;7.40;99.90;;;;;;4977761;28;20043;-58
2021/12/29 04:27:29;;;;;;;94.07;23.48;;;7.40;99.90;;;;;;4974711;28;20046;-58
2021/12/29 04:29:55;;;;;;;85.45;22.42;;;7.40;99.90;;;;;;4974356;28;20125;-58
2021/12/29 04:32:20;;;;;;;94.95;22.83;;;7.40;99.90;;;;;;4974672;28;20074;-59
2021/12/29 04:34:46;;;;;;;82.55;21.25;;;7.40;99.90;;;;;;4974786;28;20042;-59
2021/12/29 04:37:12;;;;;;;82.93;20.63;;;7.40;99.90;;;;;;4974840;28;20039;-58
2021/12/29 04:39:38;;;;;;;89.38;20.83;;;7.30;99.90;;;;;;4974375;28;20121;-58
2021/12/29 04:42:03;;;;;;;81.03;19.80;;;7.30;99.90;;;;;;4974738;28;20038;-59
2021/12/29 04:44:30;;;;;;;82.30;21.38;;;7.40;99.90;;;;;;4974274;28;20041;-58
2021/12/29 04:46:57;;;;;;;80.80;20.67;;;7.40;99.90;;;;;;4974300;28;20035;-58
2021/12/29 04:49:39;;;;;;;83.38;20.92;;;7.40;99.90;;;;;;4974350;28;20077;-58
2021/12/29 04:52:05;;;;;;;77.05;20.45;;;7.40;99.90;;;;;;4974265;28;20043;-58
2021/12/29 04:54:31;;;;;;;64.82;18.17;;;7.40;99.90;;;;;;4993515;28;20057;-58
2021/12/29 04:56:58;;;;;;;76.40;18.50;;;7.40;99.90;;;;;;4976865;28;20042;-58
2021/12/29 04:59:25;;;;;;;76.22;18.70;;;7.40;99.90;;;;;;4973967;28;20483;-58
2021/12/29 05:01:52;;;;;;;75.45;19.23;;;7.40;99.90;;;;;;4992352;28;20062;-58
2021/12/29 05:04:28;;;;;;;66.97;18.08;;;7.40;99.90;;;;;;4993382;28;20050;-58
2021/12/29 05:09:38;;;;;;;79.30;17.95;;;7.40;99.90;;;;;;4993450;28;20042;-58
2021/12/29 05:12:05;;;;;;;74.32;19.13;;;7.30;99.90;;;;;;4993341;28;20506;-58
2021/12/29 05:14:31;;;;;;;60.80;16.95;;;7.30;99.90;;;;;;4993277;28;20142;-58
2021/12/29 05:16:56;;;;;;;74.55;18.08;;;7.40;99.90;;;;;;4993457;28;20050;-58
2021/12/29 05:19:22;;;;;;;80.78;19.33;;;7.40;99.90;;;;;;4991932;28;20038;-58
2021/12/29 05:21:48;;;;;;;86.80;19.20;;;7.40;99.90;;;;;;4993053;28;20038;-58
2021/12/29 05:24:13;;;;;;;76.55;17.05;;;7.40;99.90;;;;;;4992926;28;20038;-58
2021/12/29 05:26:40;;;;;;;71.28;17.80;;;7.40;99.90;;;;;;4992957;28;20100;-58
2021/12/29 05:29:05;;;;;;;61.97;15.80;;;7.40;99.90;;;;;;4975042;28;20049;-58
2021/12/29 05:31:31;;;;;;;64.05;15.85;;;7.30;99.90;;;;;;4993270;28;20117;-58
2021/12/29 05:33:58;;;;;;;66.60;16.20;;;7.30;99.90;;;;;;4992984;28;20046;-58
2021/12/29 05:36:24;;;;;;;73.13;17.13;;;7.30;99.90;;;;;;4993007;28;20449;-58
2021/12/29 05:38:52;;;;;;;72.55;17.17;;;7.20;99.90;;;;;;4992599;28;20042;-58
2021/12/29 05:41:19;;;;;;;80.60;18.20;;;7.20;99.90;;;;;;4992695;28;20125;-59
2021/12/29 05:43:45;;;;;;;73.55;17.67;;;7.20;99.90;;;;;;4992572;28;20039;-58
2021/12/29 05:46:10;;;;;;;73.80;17.50;;;7.20;99.90;;;;;;4992886;28;20034;-58
2021/12/29 05:48:36;;;;;;;67.25;16.45;;;7.20;99.90;;;;;;4992668;28;20481;-58
2021/12/29 05:51:02;;;;;;;71.25;17.38;;;7.10;99.90;;;;;;4992748;28;20030;-58
2021/12/29 05:53:28;;;;;;;76.85;16.70;;;7.10;99.90;;;;;;4992556;28;20038;-58
2021/12/29 05:55:54;;;;;;;80.93;16.85;;;7.20;99.90;;;;;;4975134;28;20031;-59
2021/12/29 05:58:19;;;;;;;73.20;16.60;;;7.20;99.90;;;;;;4992633;28;20092;-59
2021/12/29 06:00:46;;;;;;;68.63;16.33;;;7.20;99.90;;;;;;4992008;28;20387;-58
2021/12/29 06:03:11;;;;;;;77.25;16.45;;;7.20;99.90;;;;;;4992241;28;20035;-58
2021/12/29 06:05:38;;;;;;;77.68;16.77;;;7.20;99.90;;;;;;4992021;28;20054;-58
2021/12/29 06:08:05;;;;;;;83.13;16.55;;;7.20;99.90;;;;;;4992286;28;20394;-59
2021/12/29 06:10:31;;;;;;;70.45;15.82;;;7.20;99.90;;;;;;4992475;28;20046;-58
2021/12/29 06:12:57;;;;;;;82.88;17.10;;;7.10;99.90;;;;;;4992204;28;20042;-58
2021/12/29 06:15:23;;;;;;;76.57;15.60;;;7.20;99.90;;;;;;4992212;28;20087;-59
2021/12/29 06:17:48;;;;;;;75.82;17.23;;;7.10;99.90;;;;;;4992345;28;20441;-58
2021/12/29 06:20:15;;;;;;;63.50;15.93;;;7.10;99.90;;;;;;4991989;28;20560;-59
2021/12/29 06:22:42;;;;;;;68.00;15.52;;;7.10;99.90;;;;;;4992263;28;20117;-58
2021/12/29 06:25:12;;;;;;;71.43;16.30;;;7.20;99.90;;;;;;4992072;28;20050;-58
2021/12/29 06:27:38;;;;;;;74.65;15.77;;;7.10;99.90;;;;;;4992218;28;20466;-59
2021/12/29 06:30:07;;;;;;;83.18;16.13;;;7.10;99.90;;;;;;4990746;28;20030;-58
2021/12/29 06:32:33;;;;;;;78.25;16.77;;;7.20;99.90;;;;;;4992051;28;20046;-59
2021/12/29 06:34:58;;;;;;;81.93;17.48;;;7.20;99.90;;;;;;4991829;28;20125;-58
2021/12/29 06:37:24;;;;;;;68.13;15.75;;;7.20;99.90;;;;;;4992065;28;20113;-58
2021/12/29 06:39:50;;;;;;;79.22;16.13;;;7.20;99.90;;;;;;4991522;28;20046;-58
2021/12/29 06:42:17;;;;;;;76.78;16.20;;;7.20;99.90;;;;;;4991832;28;20465;-58
2021/12/29 06:44:44;;;;;;;87.90;17.02;;;7.20;99.90;;;;;;4991771;28;20050;-58
2021/12/29 06:47:11;;;;;;;72.95;16.48;;;7.20;99.90;;;;;;4991519;28;20035;-58
2021/12/29 06:49:37;;;;;;;71.35;16.08;;;7.20;99.90;;;;;;4991693;28;20030;-58
2021/12/29 06:52:03;;;;;;;72.35;16.60;;;7.50;99.90;;;;;;4991907;28;20446;-58
2021/12/29 06:54:30;;;;;;;79.38;15.57;;;7.20;99.90;;;;;;4991656;28;20040;-58
2021/12/29 06:56:56;;;;;;;73.78;15.55;;;7.20;99.90;;;;;;4991754;28;20078;-59
2021/12/29 06:59:22;;;;;;;89.47;15.98;;;7.20;99.90;;;;;;4990895;28;20069;-57
2021/12/29 07:01:48;;;;;;;75.88;15.40;;;7.20;99.90;;;;;;4991671;28;20042;-58
2021/12/29 07:04:14;;;;;;;69.45;15.25;;;7.20;99.90;;;;;;4973572;28;20482;-58
2021/12/29 07:06:40;;;;;;;70.35;15.45;;;7.20;99.90;;;;;;4991426;28;20439;-58
2021/12/29 07:09:06;;;;;;;61.97;13.20;;;7.20;99.90;;;;;;4991569;28;20808;-58
2021/12/29 07:11:31;;;;;;;82.22;15.07;;;7.30;99.90;;;;;;4991591;28;20035;-58
2021/12/29 07:14:00;;;;;;;71.25;14.40;;;7.20;99.90;;;;;;4991424;28;20057;-59
2021/12/29 07:16:26;;;;;;;55.70;13.95;;;7.20;99.90;;;;;;4991149;28;20035;-58
2021/12/29 07:18:51;;;;;;;59.92;12.68;;;7.20;99.90;;;;;;4991314;28;20046;-58
2021/12/29 07:21:17;;;;;;;68.80;13.77;;;7.20;99.90;;;;;;4991713;28;20038;-59
2021/12/29 07:23:43;;;;;;;63.63;13.90;;;7.20;99.90;;;;;;4991008;28;20092;-58
2021/12/29 07:26:08;;;;;;;62.45;13.52;;;7.30;99.90;;;;;;4991442;28;20042;-58
2021/12/29 07:28:34;;;;;;;72.18;14.50;;;7.30;99.90;;;;;;4991371;28;20074;-58
2021/12/29 07:31:00;;;;;;;75.43;14.68;;;7.30;99.90;;;;;;4990833;28;20638;-58
2021/12/29 07:33:25;;;;;;;84.40;14.93;;;7.40;99.90;;;;;;4991118;28;20038;-58
2021/12/29 07:35:51;;;;;;;76.80;15.63;;;7.30;99.90;;;;;;4991203;28;20046;-58
2021/12/29 07:38:17;;;;;;;93.03;15.60;;;7.30;99.90;;;;;;4991438;28;20038;-58
2021/12/29 07:40:43;;;;;;;108.30;15.90;;;7.30;99.90;;;;;;4973459;28;20038;-59
2021/12/29 07:43:08;;;;;;;109.82;17.48;;;7.30;99.90;;;;;;4994341;28;20397;-59
2021/12/29 07:45:34;;;;;;;88.95;16.45;;;7.30;99.90;;;;;;4994955;28;20046;-59
2021/12/29 07:48:02;;;;;;;136.80;18.90;;;7.30;99.90;;;;;;4995091;28;20516;-58
2021/12/29 07:50:28;;;;;;;129.00;19.05;;;7.30;99.90;;;;;;4994552;28;20038;-58
2021/12/29 07:52:53;;;;;;;153.13;20.15;;;7.50;99.90;;;;;;4994777;28;20509;-59
2021/12/29 07:55:20;;;;;;;165.60;21.30;;;7.30;99.90;;;;;;4994718;28;20422;-58
2021/12/29 07:57:47;;;;;;;140.23;19.90;;;7.30;99.90;;;;;;4994853;28;20045;-59
2021/12/29 08:00:15;;;;;;;151.73;20.80;;;7.20;99.90;;;;;;4994440;28;20489;-58
2021/12/29 08:02:43;;;;;;;115.85;18.92;;;7.20;99.90;;;;;;4994667;28;20085;-58
2021/12/29 08:05:10;;;;;;;123.10;18.88;;;7.40;99.90;;;;;;4994176;28;20050;-59
2021/12/29 08:07:36;;;;;;;142.18;19.83;;;7.20;99.90;;;;;;4994776;28;20061;-59
2021/12/29 08:10:04;;;;;;;113.15;18.25;;;7.30;99.90;;;;;;4982612;28;20039;-59
2021/12/29 08:12:30;;;;;;;122.00;19.10;;;7.30;99.90;;;;;;4975456;28;20035;-58
2021/12/29 08:14:55;;;;;;;123.18;19.38;;;7.30;99.90;;;;;;4975408;28;20072;-58
2021/12/29 08:17:21;;;;;;;117.05;19.27;;;7.30;99.90;;;;;;4981720;28;20062;-59
2021/12/29 08:19:47;;;;;;;129.32;20.80;;;7.30;99.90;;;;;;4980677;28;20081;-59
2021/12/29 08:22:12;;;;;;;161.73;20.42;;;7.30;99.90;;;;;;4981374;28;20092;-58
2021/12/29 08:24:38;;;;;;;101.40;18.77;;;7.40;99.90;;;;;;4980035;28;20050;-58
2021/12/29 08:27:04;;;;;;;117.35;20.10;;;7.40;99.90;;;;;;4977277;28;20065;-58
2021/12/29 08:29:31;;;;;;;110.63;20.48;;;7.40;99.90;;;;;;4978729;28;20038;-58
2021/12/29 08:31:57;;;;;;;128.35;20.40;;;7.40;99.90;;;;;;4979297;28;20041;-59
2021/12/29 08:34:24;;;;;;;111.03;19.95;;;7.40;99.90;;;;;;4980931;28;20485;-59
2021/12/29 08:36:50;;;;;;;88.38;17.67;;;7.40;99.90;;;;;;4980923;28;20034;-58
2021/12/29 08:39:18;;;;;;;109.78;19.98;;;7.50;99.90;;;;;;4980805;28;20035;-58
2021/12/29 08:41:45;;;;;;;91.25;17.95;;;7.50;99.90;;;;;;4979952;28;20042;-58
2021/12/29 08:44:11;;;;;;;92.18;18.70;;;7.40;99.90;;;;;;4977131;28;20066;-58
2021/12/29 08:46:37;;;;;;;95.30;18.80;;;7.40;99.90;;;;;;4974726;28;20513;-58
2021/12/29 08:49:04;;;;;;;115.20;19.85;;;7.40;99.90;;;;;;4979789;28;20062;-58
2021/12/29 08:51:30;;;;;;;83.97;17.98;;;7.40;99.90;;;;;;4981352;28;20041;-58
2021/12/29 08:53:57;;;;;;;116.95;18.92;;;7.40;99.90;;;;;;4980510;28;20084;-58
2021/12/29 08:56:24;;;;;;;86.20;17.88;;;7.40;99.90;;;;;;4979628;28;20101;-58
2021/12/29 08:58:51;;;;;;;90.25;18.55;;;7.40;99.90;;;;;;4980378;28;20097;-58
2021/12/29 09:01:17;;;;;;;66.38;17.13;;;7.40;99.90;;;;;;4975429;28;20422;-59
2021/12/29 09:03:44;;;;;;;75.93;17.45;;;7.40;99.90;;;;;;4979292;28;20031;-58
2021/12/29 09:06:11;;;;;;;64.10;16.95;;;7.40;99.90;;;;;;4977610;28;20155;-58
2021/12/29 09:08:37;;;;;;;70.82;17.40;;;7.40;99.90;;;;;;4976815;28;20730;-58
2021/12/29 09:11:03;;;;;;;58.72;16.58;;;7.40;99.90;;;;;;4973014;28;20047;-58
2021/12/29 09:13:30;;;;;;;58.90;16.00;;;7.40;99.90;;;;;;4975323;28;20045;-58
2021/12/29 09:15:57;;;;;;;54.33;15.60;;;7.40;99.90;;;;;;4974368;28;20043;-58
2021/12/29 09:18:25;;;;;;;56.78;15.73;;;7.40;99.90;;;;;;4974862;28;20045;-58
2021/12/29 09:20:51;;;;;;;54.45;16.23;;;7.40;99.90;;;;;;4977109;28;20050;-58
2021/12/29 09:23:17;;;;;;;50.70;15.70;;;7.40;99.90;;;;;;4974948;28;20046;-59
2021/12/29 09:25:45;;;;;;;53.10;15.73;;;7.40;99.90;;;;;;4973205;28;20050;-58
2021/12/29 09:28:13;;;;;;;52.95;14.35;;;7.40;99.90;;;;;;4978794;28;20045;-59
2021/12/29 09:30:43;;;;;;;53.17;14.35;;;7.40;99.90;;;;;;4978668;28;20031;-58
2021/12/29 09:33:09;;;;;;;49.70;13.13;;;7.60;99.90;;;;;;4979888;28;20493;-58
2021/12/29 09:35:34;;;;;;;41.05;12.50;;;7.50;99.90;;;;;;4979030;28;20048;-58
2021/12/29 09:38:00;;;;;;;48.67;12.45;;;7.40;99.90;;;;;;4979052;28;20102;-58
2021/12/29 09:40:26;;;;;;;50.35;12.45;;;7.50;99.90;;;;;;4979555;28;20103;-58
2021/12/29 09:42:53;;;;;;;46.35;11.90;;;7.50;99.90;;;;;;4962243;28;20046;-58
2021/12/29 09:45:21;;;;;;;39.40;12.40;;;7.50;99.90;;;;;;4976880;28;20051;-58
2021/12/29 09:47:47;;;;;;;53.05;12.95;;;7.50;99.90;;;;;;4979916;28;20035;-58
2021/12/29 09:50:15;;;;;;;55.65;14.10;;;7.50;99.90;;;;;;4978225;28;20427;-58
2021/12/29 09:52:41;;;;;;;49.80;12.57;;;7.60;99.90;;;;;;4979821;28;20033;-58
2021/12/29 09:55:10;;;;;;;33.80;10.43;;;7.60;99.90;;;;;;4979756;28;20081;-58
2021/12/29 09:57:44;;;;;;;44.05;10.73;;;7.60;99.90;;;;;;4978264;28;20093;-58
2021/12/29 10:00:31;;;;;;;45.60;10.85;;;7.60;99.90;;;;;;4976003;28;20177;-58
2021/12/29 10:02:59;;;;;;;31.65;10.18;;;7.60;99.90;;;;;;4976599;28;20039;-58
2021/12/29 10:05:27;;;;;;;45.25;10.15;;;7.70;99.90;;;;;;4977917;28;20047;-59
2021/12/29 10:08:07;;;;;;;38.72;9.50;;;7.60;99.90;;;;;;4978365;28;20405;-58
2021/12/29 10:10:35;;;;;;;38.75;9.70;;;7.60;99.90;;;;;;4979280;28;20026;-58
2021/12/29 10:13:02;;;;;;;43.03;10.55;;;7.70;99.90;;;;;;4976427;28;20051;-58
2021/12/29 10:15:36;;;;;;;45.08;10.57;;;7.70;99.90;;;;;;4977213;28;20047;-59
2021/12/29 10:18:08;;;;;;;45.88;10.10;;;7.60;99.90;;;;;;4976709;28;20056;-58
2021/12/29 10:20:48;;;;;;;44.15;10.57;;;7.60;99.90;;;;;;4977326;28;20046;-58
2021/12/29 10:23:38;;;;;;;49.67;11.45;;;7.60;99.90;;;;;;4977949;28;20697;-59
2021/12/29 10:26:12;;;;;;;44.55;11.25;;;7.60;99.90;;;;;;4977339;28;20050;-58
2021/12/29 10:28:41;;;;;;;42.40;10.50;;;7.70;99.90;;;;;;4978179;28;20042;-58
2021/12/29 10:31:13;;;;;;;52.45;11.55;;;7.70;99.90;;;;;;4977510;28;20333;-58
2021/12/29 10:33:49;;;;;;;50.38;11.20;;;7.70;99.90;;;;;;4976882;28;20374;-59
2021/12/29 10:36:16;;;;;;;49.25;11.70;;;7.70;99.90;;;;;;4982259;28;20034;-58
2021/12/29 10:38:44;;;;;;;47.10;12.27;;;7.80;99.90;;;;;;4987535;28;20042;-58
2021/12/29 10:41:11;;;;;;;44.55;12.43;;;7.90;99.90;;;;;;4990058;28;20076;-58
2021/12/29 10:43:53;;;;;;;45.58;13.75;;;7.90;99.90;;;;;;4989798;28;20494;-58
2021/12/29 10:46:23;;;;;;;53.13;13.27;;;7.90;99.90;;;;;;4989519;28;20105;-58
2021/12/29 10:48:50;;;;;;;55.60;13.68;;;8.00;99.90;;;;;;4991093;28;20061;-58
2021/12/29 10:51:17;;;;;;;55.45;14.40;;;8.00;99.90;;;;;;4990013;28;20116;-58
2021/12/29 10:53:44;;;;;;;67.30;15.43;;;8.00;99.90;;;;;;4988062;28;20038;-58
2021/12/29 10:56:22;;;;;;;56.35;14.15;;;8.10;99.90;;;;;;4989503;28;20486;-58
2021/12/29 10:58:48;;;;;;;46.88;13.43;;;8.10;99.90;;;;;;4991124;28;20043;-58
2021/12/29 11:01:15;;;;;;;53.67;13.65;;;8.30;99.90;;;;;;4989537;28;20042;-59
2021/12/29 11:03:50;;;;;;;56.10;13.18;;;8.10;99.90;;;;;;4991109;28;20482;-58
2021/12/29 11:06:18;;;;;;;52.33;12.02;;;8.10;99.90;;;;;;4988491;28;20053;-58
2021/12/29 11:08:51;;;;;;;56.33;13.40;;;8.10;99.90;;;;;;4990048;28;20505;-58
2021/12/29 11:11:36;;;;;;;55.83;13.05;;;8.10;99.90;;;;;;4982729;28;20113;-58
2021/12/29 11:14:29;;;;;;;55.85;11.52;;;8.10;99.90;;;;;;4989451;28;20038;-58
2021/12/29 11:17:08;;;;;;;56.60;12.82;;;8.10;99.90;;;;;;4982635;28;20060;-57
2021/12/29 11:19:36;;;;;;;45.25;13.25;;;8.10;99.90;;;;;;4993293;28;20105;-57
2021/12/29 11:22:11;;;;;;;46.20;14.40;;;8.10;99.90;;;;;;4994097;28;20513;-58
2021/12/29 11:24:38;;;;;;;47.85;12.43;;;8.10;99.90;;;;;;4982880;28;20497;-58
2021/12/29 11:27:16;;;;;;;39.63;11.23;;;8.10;99.90;;;;;;4983614;28;20083;-58
2021/12/29 11:30:12;;;;;;;42.38;12.23;;;8.10;99.90;;;;;;4978175;28;20039;-58
2021/12/29 11:32:45;;;;;;;51.88;13.25;;;8.10;99.90;;;;;;4966435;28;20109;-58
2021/12/29 11:35:23;;;;;;;47.67;12.23;;;8.10;99.90;;;;;;4980449;28;20050;-58
2021/12/29 11:37:57;;;;;;;49.42;13.73;;;8.10;99.90;;;;;;4981767;28;20058;-58
2021/12/29 11:40:30;;;;;;;44.78;13.88;;;8.10;99.90;;;;;;4987470;28;20054;-58
2021/12/29 11:42:56;;;;;;;66.18;15.57;;;8.10;99.90;;;;;;4983788;28;20117;-58
2021/12/29 11:45:22;;;;;;;56.05;16.00;;;8.10;99.90;;;;;;4976034;28;20912;-58
2021/12/29 11:47:50;;;;;;;57.17;15.45;;;8.10;99.90;;;;;;4975712;28;20039;-58
2021/12/29 11:50:28;;;;;;;47.53;15.23;;;8.10;99.90;;;;;;4975416;28;20038;-58
2021/12/29 11:53:20;;;;;;;53.53;15.45;;;8.10;99.90;;;;;;4989215;28;20070;-58
2021/12/29 11:55:49;;;;;;;54.38;15.55;;;8.10;99.90;;;;;;4981892;28;20034;-59
2021/12/29 11:58:16;;;;;;;49.53;16.52;;;8.10;99.90;;;;;;4975633;28;20046;-58
2021/12/29 12:00:46;;;;;;;51.42;17.77;;;8.10;99.90;;;;;;4976035;28;20047;-58
2021/12/29 12:03:15;;;;;;;54.15;19.25;;;8.20;99.90;;;;;;4990471;28;20113;-58
2021/12/29 12:05:43;;;;;;;53.15;18.60;;;8.10;99.90;;;;;;4978584;28;20073;-58
2021/12/29 12:08:16;;;;;;;52.63;18.80;;;8.10;99.90;;;;;;4981302;28;20497;-58
2021/12/29 12:10:42;;;;;;;57.10;20.42;;;8.20;99.90;;;;;;4994068;28;20049;-58
2021/12/29 12:13:29;;;;;;;56.50;20.52;;;8.20;99.90;;;;;;4993502;28;20045;-57
2021/12/29 12:16:09;;;;;;;49.78;19.73;;;8.20;99.90;;;;;;4989766;28;20057;-58
2021/12/29 12:18:55;;;;;;;57.65;19.88;;;8.20;99.90;;;;;;4990334;28;20042;-58
2021/12/29 12:21:28;;;;;;;45.38;18.13;;;8.20;99.90;;;;;;4991281;28;20038;-58
2021/12/29 12:23:55;;;;;;;46.97;18.13;;;8.10;99.90;;;;;;4993261;28;20096;-57
2021/12/29 12:26:25;;;;;;;51.55;19.63;;;8.20;99.90;;;;;;4994147;28;20034;-58
2021/12/29 12:28:53;;;;;;;46.42;19.77;;;8.30;99.90;;;;;;4986625;28;20081;-58
2021/12/29 12:31:24;;;;;;;45.35;18.20;;;8.20;99.90;;;;;;4974684;28;20113;-58
2021/12/29 12:33:51;;;;;;;48.40;18.58;;;8.10;99.90;;;;;;4978765;28;20046;-58
2021/12/29 12:36:17;;;;;;;48.53;18.17;;;8.20;99.90;;;;;;4976760;28;20051;-58
2021/12/29 12:38:43;;;;;;;45.70;17.45;;;8.20;99.90;;;;;;4974870;28;20038;-58
2021/12/29 12:41:15;;;;;;;47.15;17.83;;;8.20;99.90;;;;;;4974561;28;20765;-58
2021/12/29 12:44:08;;;;;;;46.88;19.02;;;8.10;99.90;;;;;;4976014;28;20078;-59
2021/12/29 12:46:36;;;;;;;48.70;19.45;;;8.20;99.90;;;;;;4988125;28;20101;-58
2021/12/29 12:49:30;;;;;;;68.30;28.55;;;8.20;99.90;;;;;;4993696;28;20041;-58